createdAt,value
2023-01-29T00:01:51.476Z,8.98
2023-01-29T00:04:18.377Z,8.80
2023-01-29T00:06:45.219Z,9.52
2023-01-29T00:09:12.905Z,9.40
2023-01-29T00:11:39.997Z,9.38
2023-01-29T00:14:06.948Z,8.25
2023-01-29T00:16:33.785Z,8.98
2023-01-29T00:19:02.229Z,9.02
2023-01-29T00:21:31.010Z,9.23
2023-01-29T00:23:58.640Z,9.27
2023-01-29T00:26:25.857Z,8.48
2023-01-29T00:28:52.763Z,8.25
2023-01-29T00:31:23.083Z,8.13
2023-01-29T00:33:50.121Z,8.02
2023-01-29T00:36:18.111Z,9.05
2023-01-29T00:38:46.418Z,9.23
2023-01-29T00:41:33.514Z,9.80
2023-01-29T00:44:19.427Z,9.30
2023-01-29T00:46:46.576Z,10.52
2023-01-29T00:49:13.545Z,10.55
2023-01-29T00:51:40.357Z,9.18
2023-01-29T00:54:07.381Z,10.98
2023-01-29T00:56:37.355Z,11.70
2023-01-29T00:59:04.539Z,13.48
2023-01-29T01:01:50.040Z,11.23
2023-01-29T01:04:16.875Z,9.00
2023-01-29T01:06:43.895Z,10.73
2023-01-29T01:09:29.751Z,13.07
2023-01-29T01:11:56.556Z,14.18
2023-01-29T01:14:23.368Z,12.93
2023-01-29T01:16:50.277Z,15.73
2023-01-29T01:19:17.150Z,16.15
2023-01-29T01:21:45.558Z,16.10
2023-01-29T01:24:13.101Z,15.40
2023-01-29T01:26:39.982Z,17.10
2023-01-29T01:29:06.924Z,15.35
2023-01-29T01:31:33.763Z,15.10
2023-01-29T01:34:01.162Z,16.50
2023-01-29T01:36:28.650Z,13.60
2023-01-29T01:38:55.549Z,12.65
2023-01-29T01:41:23.293Z,12.13
2023-01-29T01:44:00.175Z,13.80
2023-01-29T01:46:36.031Z,14.23
2023-01-29T01:49:09.016Z,13.60
2023-01-29T01:51:38.119Z,14.75
2023-01-29T01:54:20.965Z,15.23
2023-01-29T01:56:52.575Z,13.98
2023-01-29T01:59:19.420Z,14.02
2023-01-29T02:01:50.165Z,14.85
2023-01-29T02:04:37.417Z,15.70
2023-01-29T02:07:23.623Z,14.25
2023-01-29T02:10:14.192Z,14.60
2023-01-29T02:12:41.235Z,13.05
2023-01-29T02:15:08.493Z,15.45
2023-01-29T02:17:35.384Z,15.82
2023-01-29T02:20:20.938Z,15.15
2023-01-29T02:23:08.763Z,14.07
2023-01-29T02:25:41.837Z,14.50
2023-01-29T02:28:21.666Z,14.63
2023-01-29T02:31:09.542Z,15.77
2023-01-29T02:33:53.667Z,15.18
2023-01-29T02:36:32.083Z,15.43
2023-01-29T02:39:11.603Z,15.13
2023-01-29T02:41:44.494Z,13.85
2023-01-29T02:44:23.038Z,12.98
2023-01-29T02:47:17.271Z,12.60
2023-01-29T02:49:52.713Z,11.77
2023-01-29T02:52:31.167Z,12.40
2023-01-29T02:55:03.091Z,11.60
2023-01-29T02:57:32.790Z,13.85
2023-01-29T03:00:04.779Z,12.43
2023-01-29T03:02:36.065Z,12.38
2023-01-29T03:05:04.139Z,15.32
2023-01-29T03:07:44.772Z,17.60
2023-01-29T03:10:26.853Z,17.33
2023-01-29T03:13:06.499Z,16.13
2023-01-29T03:15:39.184Z,17.02
2023-01-29T03:18:41.229Z,17.85
2023-01-29T03:21:30.410Z,16.67
2023-01-29T03:24:16.759Z,17.63
2023-01-29T03:27:02.071Z,18.10
2023-01-29T03:29:52.589Z,18.30
2023-01-29T03:32:20.422Z,17.50
2023-01-29T03:34:51.755Z,17.02
2023-01-29T03:37:40.472Z,17.13
2023-01-29T03:40:07.715Z,19.02
2023-01-29T03:42:52.700Z,18.05
2023-01-29T03:45:43.421Z,18.33
2023-01-29T03:48:16.477Z,16.85
2023-01-29T03:50:54.785Z,17.80
2023-01-29T03:53:29.694Z,17.50
2023-01-29T03:56:05.282Z,18.73
2023-01-29T03:59:12.451Z,17.98
2023-01-29T04:02:04.274Z,18.52
2023-01-29T04:04:36.904Z,16.95
2023-01-29T04:07:23.786Z,18.17
2023-01-29T04:10:07.268Z,18.63
2023-01-29T04:12:45.267Z,18.42
2023-01-29T04:15:17.406Z,20.10
2023-01-29T04:17:49.739Z,19.55
2023-01-29T04:20:23.671Z,19.70
2023-01-29T04:22:51.447Z,18.83
2023-01-29T04:25:26.632Z,20.38
2023-01-29T04:28:06.919Z,19.73
2023-01-29T04:34:58.937Z,20.00
2023-01-29T04:37:40.352Z,19.90
2023-01-29T04:40:16.112Z,20.00
2023-01-29T04:42:49.082Z,20.20
2023-01-29T04:45:25.689Z,21.02
2023-01-29T04:48:22.736Z,20.30
2023-01-29T04:50:58.512Z,20.25
2023-01-29T04:53:38.827Z,19.98
2023-01-29T04:56:26.670Z,18.92
2023-01-29T04:58:57.188Z,18.50
2023-01-29T05:01:25.765Z,19.55
2023-01-29T05:03:52.875Z,19.08
2023-01-29T05:06:19.661Z,18.27
2023-01-29T05:08:46.430Z,18.10
2023-01-29T05:11:14.382Z,17.75
2023-01-29T05:13:41.470Z,19.88
2023-01-29T05:16:09.298Z,19.95
2023-01-29T05:18:36.121Z,18.52
2023-01-29T05:21:04.851Z,17.48
2023-01-29T05:23:31.716Z,17.05
2023-01-29T05:25:58.526Z,19.13
2023-01-29T05:28:25.408Z,17.20
2023-01-29T05:30:56.532Z,18.13
2023-01-29T05:33:28.194Z,17.27
2023-01-29T05:35:55.442Z,16.67
2023-01-29T05:38:22.950Z,17.77
2023-01-29T05:40:49.727Z,17.05
2023-01-29T05:43:23.655Z,15.38
2023-01-29T05:45:58.144Z,15.63
2023-01-29T05:48:25.498Z,14.48
2023-01-29T05:50:52.257Z,14.00
2023-01-29T05:53:19.036Z,13.45
2023-01-29T05:55:46.674Z,14.30
2023-01-29T05:58:13.728Z,15.32
2023-01-29T06:00:40.659Z,12.77
2023-01-29T06:03:07.682Z,17.45
2023-01-29T06:05:37.250Z,19.58
2023-01-29T06:08:04.574Z,20.17
2023-01-29T06:10:31.312Z,19.77
2023-01-29T06:12:58.123Z,19.38
2023-01-29T06:15:26.454Z,18.15
2023-01-29T06:17:56.767Z,19.27
2023-01-29T06:20:24.257Z,18.92
2023-01-29T06:22:51.018Z,20.15
2023-01-29T06:25:17.798Z,19.95
2023-01-29T06:27:44.551Z,19.75
2023-01-29T06:30:11.925Z,18.65
2023-01-29T06:32:38.740Z,19.95
2023-01-29T06:35:06.009Z,19.25
2023-01-29T06:37:32.787Z,19.27
2023-01-29T06:39:59.528Z,18.48
2023-01-29T06:42:28.106Z,17.13
2023-01-29T06:44:58.000Z,18.25
2023-01-29T06:51:48.534Z,15.63
2023-01-29T06:54:15.521Z,15.77
2023-01-29T06:56:42.272Z,12.65
2023-01-29T06:59:09.024Z,11.48
2023-01-29T07:01:40.986Z,10.82
2023-01-29T07:04:07.851Z,9.27
2023-01-29T07:06:34.971Z,10.75
2023-01-29T07:09:02.276Z,8.63
2023-01-29T07:11:29.247Z,6.00
2023-01-29T07:13:56.005Z,6.63
2023-01-29T07:16:23.443Z,6.75
2023-01-29T07:18:50.287Z,6.22
2023-01-29T07:21:17.102Z,6.22
2023-01-29T07:23:43.880Z,4.97
2023-01-29T07:26:10.706Z,6.25
2023-01-29T07:29:37.357Z,6.15
2023-01-29T07:32:04.277Z,5.63
2023-01-29T07:34:31.182Z,5.65
2023-01-29T07:36:57.923Z,5.88
2023-01-29T07:39:24.780Z,5.30
2023-01-29T07:41:51.497Z,5.40
2023-01-29T07:44:18.236Z,4.72
2023-01-29T07:46:45.005Z,5.40
2023-01-29T07:49:11.810Z,4.72
2023-01-29T07:51:38.542Z,4.45
2023-01-29T07:54:05.366Z,3.92
2023-01-29T07:56:32.100Z,4.32
2023-01-29T07:58:58.942Z,4.38
2023-01-29T08:01:25.690Z,4.60
2023-01-29T08:03:52.928Z,5.50
2023-01-29T08:06:19.681Z,5.43
2023-01-29T08:08:46.441Z,6.15
2023-01-29T08:11:13.224Z,6.40
2023-01-29T08:13:40.017Z,7.68
2023-01-29T08:16:07.335Z,8.48
2023-01-29T08:18:34.213Z,12.90
2023-01-29T08:21:01.447Z,15.55
2023-01-29T08:23:28.272Z,13.02
2023-01-29T08:25:55.115Z,11.13
2023-01-29T08:28:21.871Z,11.23
2023-01-29T08:30:48.615Z,9.00
2023-01-29T08:33:17.552Z,7.97
2023-01-29T08:35:48.432Z,8.40
2023-01-29T08:38:15.170Z,8.02
2023-01-29T08:40:41.914Z,8.43
2023-01-29T08:43:09.613Z,8.85
2023-01-29T08:45:38.337Z,9.60
2023-01-29T08:48:05.405Z,61.67
2023-01-29T08:50:33.012Z,11.15
2023-01-29T08:53:00.396Z,15.13
2023-01-29T08:55:27.490Z,13.57
2023-01-29T08:57:54.466Z,10.75
2023-01-29T09:00:21.608Z,10.55
2023-01-29T09:02:48.430Z,10.48
2023-01-29T09:05:15.531Z,11.13
2023-01-29T09:07:42.452Z,10.60
2023-01-29T09:10:09.942Z,10.55
2023-01-29T09:12:36.772Z,6.00
2023-01-29T09:15:04.827Z,6.32
2023-01-29T09:17:31.576Z,4.85
2023-01-29T09:19:58.777Z,5.00
2023-01-29T09:22:25.613Z,4.25
2023-01-29T09:24:52.380Z,3.97
2023-01-29T09:27:19.212Z,3.95
2023-01-29T09:29:46.012Z,3.78
2023-01-29T09:32:13.002Z,6.35
2023-01-29T09:34:40.172Z,5.25
2023-01-29T09:41:43.780Z,3.88
2023-01-29T09:44:23.677Z,6.05
2023-01-29T09:46:51.440Z,7.78
2023-01-29T09:49:52.201Z,7.72
2023-01-29T09:52:40.529Z,7.13
2023-01-29T09:55:15.274Z,7.80
2023-01-29T09:57:58.010Z,7.05
2023-01-29T10:00:33.372Z,6.72
2023-01-29T10:03:22.909Z,5.10
2023-01-29T10:06:11.617Z,5.07
2023-01-29T10:09:19.323Z,4.90
2023-01-29T10:12:07.316Z,4.80
2023-01-29T10:14:40.508Z,4.63
2023-01-29T10:17:54.737Z,4.60
2023-01-29T10:20:24.283Z,4.20
2023-01-29T10:22:54.714Z,4.55
2023-01-29T10:25:21.845Z,5.57
2023-01-29T10:27:58.838Z,4.45
2023-01-29T10:30:40.368Z,4.25
2023-01-29T10:33:13.473Z,4.28
2023-01-29T10:35:46.650Z,4.72
2023-01-29T10:38:19.791Z,4.63
2023-01-29T10:40:57.284Z,4.78
2023-01-29T10:43:38.125Z,7.18
2023-01-29T10:46:36.706Z,6.78
2023-01-29T10:49:42.169Z,6.03
2023-01-29T10:52:17.148Z,5.32
2023-01-29T10:54:55.904Z,5.82
2023-01-29T10:57:58.230Z,5.82
2023-01-29T11:00:27.529Z,6.13
2023-01-29T11:02:54.439Z,5.45
2023-01-29T11:05:32.065Z,5.35
2023-01-29T11:08:05.405Z,5.35
2023-01-29T11:12:59.663Z,4.97
2023-01-29T11:15:31.831Z,5.57
2023-01-29T11:18:17.120Z,5.28
2023-01-29T11:20:44.710Z,5.57
2023-01-29T11:23:27.339Z,6.28
2023-01-29T11:25:54.508Z,6.10
2023-01-29T11:28:47.040Z,6.57
2023-01-29T11:31:22.938Z,5.68
2023-01-29T11:33:51.483Z,6.35
2023-01-29T11:36:40.218Z,5.90
2023-01-29T11:39:19.953Z,5.32
2023-01-29T11:41:55.831Z,7.13
2023-01-29T11:44:28.213Z,6.70
2023-01-29T11:46:56.061Z,7.03
2023-01-29T11:49:33.478Z,6.82
2023-01-29T11:52:05.164Z,10.32
2023-01-29T11:54:35.276Z,9.93
2023-01-29T11:57:02.228Z,7.75
2023-01-29T11:59:44.339Z,7.30
2023-01-29T12:02:16.626Z,7.93
2023-01-29T12:04:43.398Z,7.63
2023-01-29T12:07:17.354Z,8.25
2023-01-29T12:09:55.785Z,7.60
2023-01-29T12:12:34.505Z,8.50
2023-01-29T12:15:16.502Z,8.48
2023-01-29T12:17:46.118Z,8.15
2023-01-29T12:20:23.136Z,8.48
2023-01-29T12:23:21.889Z,8.13
2023-01-29T12:26:07.387Z,8.98
2023-01-29T12:29:11.735Z,8.52
2023-01-29T12:32:06.607Z,8.55
2023-01-29T12:34:45.162Z,8.23
2023-01-29T12:37:19.081Z,8.52
2023-01-29T12:39:45.864Z,9.05
2023-01-29T12:42:23.064Z,9.10
2023-01-29T12:45:01.036Z,8.45
2023-01-29T12:47:38.731Z,17.45
2023-01-29T12:50:19.589Z,8.57
2023-01-29T12:53:00.786Z,9.77
2023-01-29T12:55:45.325Z,9.38
2023-01-29T12:58:17.900Z,11.45
2023-01-29T13:00:45.922Z,11.23
2023-01-29T13:03:52.338Z,23.38
2023-01-29T13:06:22.669Z,11.07
2023-01-29T13:09:20.140Z,9.43
2023-01-29T13:12:07.377Z,8.82
2023-01-29T13:14:56.355Z,9.43
2023-01-29T13:17:53.022Z,9.63
2023-01-29T13:20:25.635Z,9.40
2023-01-29T13:22:53.124Z,9.68
2023-01-29T13:25:20.175Z,9.88
2023-01-29T13:27:47.801Z,10.18
2023-01-29T13:30:28.576Z,10.77
2023-01-29T13:32:55.893Z,10.73
2023-01-29T13:35:22.736Z,10.70
2023-01-29T13:37:51.316Z,11.27
2023-01-29T13:40:29.152Z,11.48
2023-01-29T13:42:57.307Z,12.48
2023-01-29T13:45:42.424Z,10.45
2023-01-29T13:48:31.994Z,10.88
2023-01-29T13:51:02.371Z,10.88
2023-01-29T13:53:40.284Z,12.70
2023-01-29T13:56:35.190Z,10.82
2023-01-29T13:59:03.033Z,10.23
2023-01-29T14:01:48.378Z,11.27
2023-01-29T14:04:26.683Z,11.27
2023-01-29T14:06:56.029Z,10.20
2023-01-29T14:09:38.167Z,12.80
2023-01-29T14:12:33.793Z,11.20
2023-01-29T14:15:24.729Z,11.68
2023-01-29T14:18:35.364Z,11.32
2023-01-29T14:21:14.467Z,9.85
2023-01-29T14:23:46.746Z,11.43
2023-01-29T14:26:34.659Z,11.52
2023-01-29T14:29:04.572Z,11.65
2023-01-29T14:31:52.524Z,11.52
2023-01-29T14:34:41.512Z,14.15
2023-01-29T14:37:27.055Z,13.35
2023-01-29T14:39:56.022Z,18.10
2023-01-29T14:42:36.588Z,18.02
2023-01-29T14:45:32.729Z,16.92
2023-01-29T14:48:00.644Z,16.42
2023-01-29T14:50:33.339Z,14.88
2023-01-29T14:53:23.268Z,21.13
2023-01-29T14:56:21.347Z,17.27
2023-01-29T14:59:10.748Z,13.60
2023-01-29T15:01:38.739Z,18.48
2023-01-29T15:04:25.616Z,18.88
2023-01-29T15:06:55.150Z,16.33
2023-01-29T15:09:36.805Z,16.70
2023-01-29T15:12:20.366Z,14.18
2023-01-29T15:15:15.253Z,13.35
2023-01-29T15:18:08.248Z,12.18
2023-01-29T15:20:39.394Z,12.00
2023-01-29T15:23:27.723Z,11.65
2023-01-29T15:25:56.382Z,12.02
2023-01-29T15:28:23.198Z,10.95
2023-01-29T15:30:56.928Z,14.63
2023-01-29T15:33:23.801Z,13.25
2023-01-29T15:35:53.698Z,14.00
2023-01-29T15:38:26.767Z,12.88
2023-01-29T15:40:57.913Z,19.95
2023-01-29T15:43:28.760Z,13.25
2023-01-29T15:46:06.628Z,11.55
2023-01-29T15:48:36.128Z,12.38
2023-01-29T15:51:05.025Z,14.32
2023-01-29T15:53:50.214Z,19.23
2023-01-29T15:56:18.748Z,17.58
2023-01-29T15:58:48.427Z,20.45
2023-01-29T16:01:15.275Z,22.02
2023-01-29T16:03:42.107Z,17.25
2023-01-29T16:06:09.133Z,17.15
2023-01-29T16:08:35.901Z,16.67
2023-01-29T16:11:04.196Z,13.60
2023-01-29T16:13:36.016Z,13.05
2023-01-29T16:16:05.053Z,14.90
2023-01-29T16:18:40.966Z,13.63
2023-01-29T16:21:14.315Z,15.95
2023-01-29T16:23:43.426Z,13.20
2023-01-29T16:26:15.356Z,13.95
2023-01-29T16:28:42.844Z,16.85
2023-01-29T16:31:10.253Z,12.40
2023-01-29T16:33:39.009Z,12.60
2023-01-29T16:36:21.177Z,13.77
2023-01-29T16:38:50.364Z,11.23
2023-01-29T16:41:23.951Z,11.27
2023-01-29T16:43:54.995Z,10.43
2023-01-29T16:46:37.382Z,9.98
2023-01-29T16:49:27.033Z,10.15
2023-01-29T16:51:54.576Z,9.18
2023-01-29T16:54:24.205Z,9.27
2023-01-29T16:56:53.204Z,9.30
2023-01-29T16:59:35.740Z,10.15
2023-01-29T17:02:02.577Z,10.20
2023-01-29T17:04:29.350Z,10.32
2023-01-29T17:06:57.709Z,9.77
2023-01-29T17:09:29.983Z,9.80
2023-01-29T17:12:02.007Z,9.48
2023-01-29T17:14:29.884Z,10.52
2023-01-29T17:17:04.790Z,9.77
2023-01-29T17:19:31.577Z,9.95
2023-01-29T17:21:59.062Z,9.40
2023-01-29T17:24:26.247Z,8.52
2023-01-29T17:26:53.213Z,9.95
2023-01-29T17:29:23.557Z,9.32
2023-01-29T17:31:50.374Z,9.68
2023-01-29T17:34:17.830Z,10.13
2023-01-29T17:36:44.941Z,10.27
2023-01-29T17:39:17.602Z,10.30
2023-01-29T17:41:49.602Z,9.38
2023-01-29T17:44:16.484Z,9.52
2023-01-29T17:46:43.659Z,9.65
2023-01-29T17:49:19.301Z,10.20
2023-01-29T17:51:46.130Z,9.27
2023-01-29T17:54:12.875Z,9.15
2023-01-29T17:56:39.635Z,8.52
2023-01-29T17:59:14.158Z,9.88
2023-01-29T18:01:41.232Z,9.32
2023-01-29T18:04:09.240Z,9.48
2023-01-29T18:06:36.163Z,8.82
2023-01-29T18:09:03.104Z,10.38
2023-01-29T18:11:30.063Z,9.73
2023-01-29T18:13:56.841Z,9.65
2023-01-29T18:16:23.925Z,10.45
2023-01-29T18:18:51.360Z,8.93
2023-01-29T18:21:18.356Z,9.55
2023-01-29T18:23:45.134Z,9.45
2023-01-29T18:26:15.463Z,9.27
2023-01-29T18:28:43.712Z,10.35
2023-01-29T18:31:12.936Z,10.55
2023-01-29T18:33:40.505Z,9.75
2023-01-29T18:36:08.118Z,9.43
2023-01-29T18:38:34.927Z,10.48
2023-01-29T18:41:11.886Z,10.68
2023-01-29T18:43:39.725Z,10.27
2023-01-29T18:46:06.829Z,10.20
2023-01-29T18:48:34.300Z,10.23
2023-01-29T18:51:01.136Z,10.55
2023-01-29T18:53:27.959Z,11.82
2023-01-29T18:55:59.733Z,11.40
2023-01-29T18:58:35.573Z,11.65
2023-01-29T19:01:08.905Z,11.07
2023-01-29T19:06:03.705Z,9.32
2023-01-29T19:08:30.545Z,9.90
2023-01-29T19:10:57.932Z,9.15
2023-01-29T19:13:26.358Z,9.63
2023-01-29T19:15:53.100Z,9.85
2023-01-29T19:18:20.570Z,10.52
2023-01-29T19:20:47.523Z,10.60
2023-01-29T19:23:14.306Z,10.07
2023-01-29T19:25:41.255Z,10.77
2023-01-29T19:28:08.955Z,11.27
2023-01-29T19:30:35.785Z,10.77
2023-01-29T19:33:02.811Z,9.75
2023-01-29T19:35:29.688Z,11.38
2023-01-29T19:37:56.515Z,11.88
2023-01-29T19:40:24.267Z,10.30
2023-01-29T19:42:54.716Z,10.27
2023-01-29T19:45:42.947Z,11.13
2023-01-29T19:48:13.635Z,10.48
2023-01-29T19:50:40.388Z,10.93
2023-01-29T19:53:07.171Z,10.98
2023-01-29T19:55:33.947Z,11.65
2023-01-29T19:58:00.742Z,11.07
2023-01-29T20:00:27.543Z,12.25
2023-01-29T20:02:54.371Z,12.52
2023-01-29T20:05:21.190Z,11.27
2023-01-29T20:07:49.725Z,11.95
2023-01-29T20:10:17.557Z,15.45
2023-01-29T20:12:45.281Z,11.93
2023-01-29T20:15:15.685Z,10.82
2023-01-29T20:17:43.587Z,12.27
2023-01-29T20:20:10.844Z,11.02
2023-01-29T20:22:37.646Z,11.77
2023-01-29T20:25:04.649Z,11.93
2023-01-29T20:27:31.418Z,11.73
2023-01-29T20:29:58.430Z,12.35
2023-01-29T20:32:25.218Z,12.48
2023-01-29T20:34:52.482Z,12.82
2023-01-29T20:37:19.637Z,13.07
2023-01-29T20:39:46.703Z,12.73
2023-01-29T20:42:13.458Z,12.10
2023-01-29T20:44:40.271Z,12.30
2023-01-29T20:47:07.036Z,12.50
2023-01-29T20:49:33.914Z,13.02
2023-01-29T20:52:00.684Z,11.27
2023-01-29T20:54:29.981Z,13.55
2023-01-29T20:56:57.083Z,12.48
2023-01-29T20:59:23.955Z,11.45
2023-01-29T21:01:50.780Z,11.68
2023-01-29T21:04:17.665Z,11.57
2023-01-29T21:06:44.484Z,13.00
2023-01-29T21:09:11.250Z,12.02
2023-01-29T21:11:37.995Z,12.05
2023-01-29T21:14:04.835Z,11.82
2023-01-29T21:16:31.623Z,11.90
2023-01-29T21:18:58.525Z,12.77
2023-01-29T21:21:26.602Z,12.52
2023-01-29T21:23:53.538Z,11.95
2023-01-29T21:26:20.361Z,12.27
2023-01-29T21:28:47.169Z,12.75
2023-01-29T21:31:17.669Z,13.88
2023-01-29T21:33:44.605Z,11.63
2023-01-29T21:36:11.490Z,12.45
2023-01-29T21:38:38.732Z,11.65
2023-01-29T21:41:07.203Z,12.20
2023-01-29T21:43:34.056Z,13.02
2023-01-29T21:46:04.843Z,12.20
2023-01-29T21:48:31.847Z,11.60
2023-01-29T21:50:58.637Z,12.73
2023-01-29T21:53:25.477Z,13.93
2023-01-29T21:55:52.249Z,12.70
2023-01-29T21:58:20.813Z,12.50
2023-01-29T22:00:48.799Z,13.27
2023-01-29T22:03:15.770Z,12.55
2023-01-29T22:05:42.667Z,13.82
2023-01-29T22:08:09.895Z,13.05
2023-01-29T22:10:37.605Z,13.68
2023-01-29T22:13:04.576Z,13.35
2023-01-29T22:15:31.491Z,13.85
2023-01-29T22:17:58.400Z,14.52
2023-01-29T22:20:30.131Z,12.23
2023-01-29T22:23:00.630Z,14.60
2023-01-29T22:25:27.674Z,13.18
2023-01-29T22:27:54.572Z,13.55
2023-01-29T22:30:23.254Z,13.90
2023-01-29T22:32:50.460Z,13.35
2023-01-29T22:35:17.321Z,13.23
2023-01-29T22:37:45.054Z,13.50
2023-01-29T22:40:12.910Z,13.13
2023-01-29T22:42:39.810Z,14.52
2023-01-29T22:45:07.999Z,13.20
2023-01-29T22:47:34.814Z,14.82
2023-01-29T22:50:01.647Z,13.10
2023-01-29T22:52:28.410Z,12.57
2023-01-29T22:54:55.275Z,13.68
2023-01-29T22:57:22.186Z,14.23
2023-01-29T22:59:49.005Z,14.63
2023-01-29T23:02:15.769Z,14.95
2023-01-29T23:04:42.587Z,14.70
2023-01-29T23:07:09.446Z,14.70
2023-01-29T23:09:36.192Z,15.48
2023-01-29T23:12:03.026Z,14.23
2023-01-29T23:14:29.803Z,14.10
2023-01-29T23:16:56.627Z,13.70
2023-01-29T23:19:23.478Z,14.25
2023-01-29T23:21:50.281Z,13.30
2023-01-29T23:24:17.067Z,14.38
2023-01-29T23:27:02.595Z,15.40
2023-01-29T23:29:29.409Z,14.27
2023-01-29T23:31:56.159Z,15.10
2023-01-29T23:34:22.958Z,14.55
2023-01-29T23:36:49.731Z,15.02
2023-01-29T23:39:16.690Z,14.68
2023-01-29T23:41:43.633Z,14.73
2023-01-29T23:44:10.412Z,15.30
2023-01-29T23:46:37.191Z,14.65
2023-01-29T23:49:04.008Z,15.85
2023-01-29T23:51:30.836Z,14.63
2023-01-29T23:53:57.607Z,14.48
2023-01-29T23:56:24.558Z,14.90
2023-01-29T23:58:55.212Z,13.15
